createdAt,value
2023-04-21T00:00:57.471Z,8.70
2023-04-21T00:03:27.099Z,8.50
2023-04-21T00:05:59.149Z,8.70
2023-04-21T00:08:28.297Z,8.30
2023-04-21T00:10:57.734Z,8.80
2023-04-21T00:13:25.337Z,8.60
2023-04-21T00:15:53.273Z,9.10
2023-04-21T00:18:21.974Z,8.70
2023-04-21T00:20:49.952Z,9.60
2023-04-21T00:23:22.140Z,9.40
2023-04-21T00:25:49.516Z,8.60
2023-04-21T00:28:17.099Z,8.50
2023-04-21T00:30:46.011Z,8.10
2023-04-21T00:33:14.505Z,8.30
2023-04-21T00:35:42.768Z,9.10
2023-04-21T00:38:11.636Z,8.30
2023-04-21T00:40:38.993Z,8.90
2023-04-21T00:43:30.594Z,9.60
2023-04-21T00:45:58.161Z,9.10
2023-04-21T00:48:26.524Z,8.70
2023-04-21T00:51:05.366Z,9.20
2023-04-21T00:53:33.374Z,8.70
2023-04-21T00:56:03.115Z,8.80
2023-04-21T00:58:34.464Z,8.70
2023-04-21T01:04:55.195Z,9.30
2023-04-21T01:08:44.204Z,9.00
2023-04-21T01:12:42.287Z,8.80
2023-04-21T01:16:30.295Z,8.60
2023-04-21T01:20:20.836Z,8.20
2023-04-21T01:24:08.714Z,8.10
2023-04-21T01:28:00.857Z,8.30
2023-04-21T01:31:48.700Z,8.40
2023-04-21T01:35:39.782Z,8.40
2023-04-21T01:39:27.619Z,8.00
2023-04-21T01:43:16.009Z,9.00
2023-04-21T01:47:11.282Z,8.00
2023-04-21T01:54:41.637Z,7.00
2023-04-21T02:13:56.868Z,8.00
2023-04-21T02:17:06.476Z,7.60
2023-04-21T02:23:24.816Z,7.90
2023-04-21T02:27:12.714Z,8.40
2023-04-21T02:31:16.117Z,8.40
2023-04-21T02:35:04.271Z,8.80
2023-04-21T02:38:53.543Z,8.40
2023-04-21T02:42:41.702Z,7.90
2023-04-21T02:46:30.010Z,7.50
2023-04-21T02:50:19.597Z,7.20
2023-04-21T02:57:35.201Z,8.30
2023-04-21T03:01:26.106Z,8.10
2023-04-21T03:05:15.142Z,8.80
2023-04-21T03:09:05.812Z,8.70
2023-04-21T03:12:53.861Z,8.40
2023-04-21T03:16:41.788Z,8.40
2023-04-21T03:20:29.744Z,8.70
2023-04-21T03:24:17.373Z,8.50
2023-04-21T03:28:07.906Z,8.40
2023-04-21T03:31:58.287Z,9.00
2023-04-21T03:35:46.669Z,8.20
2023-04-21T03:39:35.318Z,8.60
2023-04-21T03:43:23.194Z,7.90
2023-04-21T03:47:11.314Z,8.70
2023-04-21T03:50:59.714Z,9.00
2023-04-21T03:54:47.631Z,9.40
2023-04-21T03:58:35.527Z,10.10
2023-04-21T04:02:23.659Z,10.00
2023-04-21T04:06:14.253Z,8.90
2023-04-21T04:10:02.522Z,8.50
2023-04-21T04:13:50.057Z,9.40
2023-04-21T04:17:40.842Z,9.10
2023-04-21T04:21:28.428Z,9.20
2023-04-21T04:25:16.879Z,9.20
2023-04-21T04:29:08.656Z,9.20
2023-04-21T04:32:58.157Z,8.90
2023-04-21T04:36:46.399Z,8.30
2023-04-21T04:40:35.543Z,8.80
2023-04-21T04:44:24.591Z,9.70
2023-04-21T04:52:00.492Z,10.10
2023-04-21T04:55:48.896Z,9.40
2023-04-21T04:59:40.888Z,8.30
2023-04-21T05:03:28.572Z,8.30
2023-04-21T05:07:16.270Z,8.60
2023-04-21T05:14:58.326Z,10.00
2023-04-21T05:22:35.194Z,9.80
2023-04-21T05:26:23.359Z,9.10
2023-04-21T05:30:14.164Z,9.00
2023-04-21T05:34:01.917Z,8.90
2023-04-21T05:37:51.276Z,9.90
2023-04-21T05:41:38.908Z,9.60
2023-04-21T05:45:26.674Z,10.20
2023-04-21T05:49:15.479Z,9.40
2023-04-21T05:53:03.735Z,9.00
2023-04-21T05:56:51.426Z,9.00
2023-04-21T06:00:39.727Z,8.70
2023-04-21T06:04:28.872Z,8.90
2023-04-21T06:08:16.573Z,9.40
2023-04-21T06:12:04.702Z,10.20
2023-04-21T06:15:55.319Z,9.30
2023-04-21T06:19:44.496Z,10.00
2023-04-21T06:23:32.318Z,9.50
2023-04-21T06:27:20.226Z,8.20
2023-04-21T06:36:49.615Z,8.00
2023-04-21T06:40:37.328Z,8.30
2023-04-21T06:44:26.242Z,7.20
2023-04-21T07:04:09.250Z,6.20
2023-04-21T07:08:01.296Z,5.60
2023-04-21T07:11:49.409Z,5.70
2023-04-21T07:15:36.795Z,6.40
2023-04-21T07:19:26.801Z,5.60
2023-04-21T07:23:15.041Z,5.80
2023-04-21T07:27:03.820Z,6.00
2023-04-21T07:30:51.999Z,6.30
2023-04-21T07:34:43.056Z,6.30
2023-04-21T07:38:28.649Z,6.80
2023-04-21T07:45:11.718Z,6.50
2023-04-21T07:49:00.544Z,5.90
2023-04-21T07:52:49.108Z,6.40
2023-04-21T08:06:31.051Z,6.20
2023-04-21T08:23:07.892Z,6.10
2023-04-21T08:26:09.336Z,6.50
2023-04-21T08:37:35.477Z,6.20
2023-04-21T08:41:00.364Z,6.00
2023-04-21T08:44:24.842Z,6.30
2023-04-21T09:00:06.463Z,7.80
2023-04-21T09:03:25.054Z,7.20
2023-04-21T09:06:06.852Z,7.40
2023-04-21T09:08:39.316Z,7.10
2023-04-21T09:14:47.435Z,7.90
2023-04-21T09:17:23.632Z,7.70
2023-04-21T09:19:57.833Z,8.10
2023-04-21T09:22:46.835Z,8.40
2023-04-21T09:31:20.376Z,6.80
2023-04-21T09:34:02.728Z,6.60
2023-04-21T09:39:57.269Z,7.30
2023-04-21T09:43:05.321Z,5.90
2023-04-21T09:50:35.832Z,5.40
2023-04-21T09:59:39.113Z,4.60
2023-04-21T10:02:39.900Z,5.00
2023-04-21T10:05:38.158Z,5.60
2023-04-21T10:08:23.712Z,5.00
2023-04-21T10:14:21.286Z,4.50
2023-04-21T10:17:09.717Z,4.70
2023-04-21T10:25:39.466Z,4.60
2023-04-21T10:57:08.612Z,4.70
2023-04-21T11:03:03.741Z,3.90
2023-04-21T11:06:25.969Z,4.10
2023-04-21T11:09:10.737Z,3.70
2023-04-21T11:12:43.437Z,3.50
2023-04-21T11:16:10.091Z,4.00
2023-04-21T11:18:47.092Z,3.60
2023-04-21T11:21:28.742Z,3.30
2023-04-21T11:24:23.653Z,3.70
2023-04-21T11:26:53.263Z,3.00
2023-04-21T11:33:03.794Z,3.40
2023-04-21T11:36:18.069Z,3.10
2023-04-21T11:41:59.595Z,3.40
2023-04-21T11:48:58.136Z,3.10
2023-04-21T11:52:08.419Z,3.60
2023-04-21T11:54:37.294Z,3.50
2023-04-21T12:00:24.004Z,3.80
2023-04-21T12:04:12.308Z,3.20
2023-04-21T12:08:03.200Z,2.70
2023-04-21T12:11:54.027Z,3.20
2023-04-21T12:15:25.651Z,2.70
2023-04-21T12:19:16.457Z,2.60
2023-04-21T12:23:04.130Z,2.70
2023-04-21T12:26:50.840Z,2.80
2023-04-21T12:30:42.367Z,2.50
2023-04-21T12:34:34.069Z,2.50
2023-04-21T12:38:28.400Z,2.80
2023-04-21T12:42:15.932Z,2.70
2023-04-21T12:49:23.236Z,2.40
2023-04-21T12:53:12.083Z,3.30
2023-04-21T12:57:03.354Z,3.00
2023-04-21T13:00:51.075Z,2.60
2023-04-21T13:04:39.318Z,3.10
2023-04-21T13:11:40.672Z,2.30
2023-04-21T13:21:37.068Z,3.00
2023-04-21T13:25:28.413Z,2.60
2023-04-21T13:29:19.524Z,2.60
2023-04-21T13:33:10.050Z,2.90
2023-04-21T13:37:01.788Z,2.60
2023-04-21T13:40:49.941Z,2.60
2023-04-21T13:44:38.525Z,3.90
2023-04-21T13:48:26.455Z,3.30
2023-04-21T13:52:15.050Z,2.80
2023-04-21T13:56:04.504Z,2.40
2023-04-21T13:59:55.693Z,2.10
2023-04-21T14:03:43.876Z,1.90
2023-04-21T14:07:31.778Z,2.40
2023-04-21T14:11:19.486Z,2.30
2023-04-21T14:15:07.871Z,5.10
2023-04-21T14:18:56.791Z,3.30
2023-04-21T14:22:44.693Z,2.30
2023-04-21T14:26:33.870Z,2.70
2023-04-21T14:30:22.280Z,2.60
2023-04-21T14:34:10.411Z,3.00
2023-04-21T14:37:58.623Z,2.40
2023-04-21T14:41:46.939Z,2.00
2023-04-21T14:44:49.305Z,2.40
2023-04-21T14:52:30.230Z,2.40
2023-04-21T14:56:19.474Z,2.20
2023-04-21T15:00:08.466Z,2.20
2023-04-21T15:07:18.911Z,2.10
2023-04-21T15:11:03.363Z,2.00
2023-04-21T15:14:51.343Z,1.90
2023-04-21T15:18:39.224Z,2.00
2023-04-21T15:22:27.352Z,2.10
2023-04-21T15:26:18.128Z,2.00
2023-04-21T15:30:06.317Z,2.10
2023-04-21T15:37:38.827Z,2.00
2023-04-21T15:41:29.678Z,1.80
2023-04-21T15:45:17.722Z,1.60
2023-04-21T15:49:05.810Z,2.00
2023-04-21T15:52:53.834Z,1.90
2023-04-21T15:56:41.911Z,2.20
2023-04-21T16:00:30.364Z,2.10
2023-04-21T16:04:18.489Z,2.10
2023-04-21T16:08:06.520Z,1.70
2023-04-21T16:15:44.229Z,2.20
2023-04-21T16:19:32.725Z,2.00
2023-04-21T16:23:20.568Z,1.90
2023-04-21T16:27:09.121Z,2.30
2023-04-21T16:30:56.068Z,2.00
2023-04-21T16:34:12.277Z,2.30
2023-04-21T16:37:39.906Z,2.30
2023-04-21T16:41:27.091Z,2.10
2023-04-21T16:45:14.218Z,3.00
2023-04-21T16:49:02.091Z,2.60
2023-04-21T16:52:33.042Z,2.60
2023-04-21T16:56:24.053Z,3.20
2023-04-21T17:00:11.315Z,4.00
2023-04-21T17:03:38.631Z,3.40
2023-04-21T17:06:48.714Z,3.60
2023-04-21T17:10:16.730Z,3.40
2023-04-21T17:13:44.064Z,2.90
2023-04-21T17:17:32.820Z,2.60
2023-04-21T17:21:21.539Z,3.10
2023-04-21T17:25:09.260Z,3.40
2023-04-21T17:28:57.086Z,3.70
2023-04-21T17:32:24.795Z,3.60
2023-04-21T17:36:03.412Z,3.50
2023-04-21T17:39:34.725Z,3.00
2023-04-21T17:43:23.560Z,3.10
2023-04-21T17:47:14.205Z,2.90
2023-04-21T17:51:02.761Z,3.40
2023-04-21T17:54:50.797Z,2.40
2023-04-21T17:58:44.973Z,3.20
2023-04-21T18:02:33.177Z,3.50
2023-04-21T18:06:01.492Z,4.00
2023-04-21T18:13:33.769Z,2.90
2023-04-21T18:17:06.953Z,3.30
2023-04-21T18:20:57.349Z,2.70
2023-04-21T18:24:45.649Z,2.70
2023-04-21T18:28:33.704Z,3.00
2023-04-21T18:32:25.062Z,3.20
2023-04-21T18:36:15.589Z,2.90
2023-04-21T18:40:04.862Z,3.00
2023-04-21T18:44:00.791Z,2.80
2023-04-21T18:47:48.839Z,3.10
2023-04-21T18:51:36.670Z,2.50
2023-04-21T18:55:10.040Z,2.60
2023-04-21T18:58:57.810Z,3.30
2023-04-21T19:02:45.633Z,3.40
2023-04-21T19:06:33.930Z,3.00
2023-04-21T19:10:21.569Z,10.60
2023-04-21T19:13:30.630Z,15.70
2023-04-21T19:16:51.327Z,14.20
2023-04-21T19:23:30.617Z,7.80
2023-04-21T19:27:20.892Z,5.80
2023-04-21T19:30:01.978Z,5.60
2023-04-21T19:33:49.562Z,5.60
2023-04-21T19:37:10.132Z,4.80
2023-04-21T19:40:38.168Z,4.90
2023-04-21T19:44:01.528Z,4.30
2023-04-21T19:47:20.034Z,3.90
2023-04-21T19:53:20.529Z,4.10
2023-04-21T19:59:42.129Z,4.50
2023-04-21T20:02:11.480Z,5.10
2023-04-21T20:05:10.830Z,6.10
2023-04-21T20:08:25.250Z,6.80
2023-04-21T20:11:47.874Z,6.70
2023-04-21T20:15:04.701Z,5.00
2023-04-21T20:17:57.523Z,4.70
2023-04-21T20:20:47.254Z,4.80
2023-04-21T20:23:36.777Z,4.60
2023-04-21T20:26:31.036Z,6.60
2023-04-21T20:29:40.601Z,6.70
2023-04-21T20:32:34.955Z,5.70
2023-04-21T20:35:16.952Z,5.10
2023-04-21T20:37:50.168Z,5.60
2023-04-21T20:40:43.500Z,5.90
2023-04-21T20:43:12.818Z,5.40
2023-04-21T20:45:44.309Z,5.30
2023-04-21T20:48:12.566Z,4.70
2023-04-21T20:50:40.193Z,4.70
2023-04-21T20:53:09.783Z,5.20
2023-04-21T20:55:37.958Z,4.60
2023-04-21T20:58:10.743Z,6.00
2023-04-21T21:00:38.300Z,5.70
2023-04-21T21:03:11.383Z,8.20
2023-04-21T21:05:39.907Z,9.40
2023-04-21T21:08:09.586Z,6.30
2023-04-21T21:10:39.897Z,7.90
2023-04-21T21:13:32.624Z,7.80
2023-04-21T21:16:00.645Z,7.40
2023-04-21T21:19:10.517Z,6.20
2023-04-21T21:21:59.246Z,10.10
2023-04-21T21:24:29.531Z,8.00
2023-04-21T21:26:58.600Z,7.00
2023-04-21T21:29:54.936Z,6.40
2023-04-21T21:33:02.138Z,6.30
2023-04-21T21:35:49.849Z,7.00
2023-04-21T21:38:23.406Z,7.30
2023-04-21T21:40:51.658Z,15.90
2023-04-21T21:43:29.621Z,12.60
2023-04-21T21:46:00.897Z,8.90
2023-04-21T21:49:10.916Z,6.70
2023-04-21T21:51:58.384Z,6.10
2023-04-21T21:54:26.289Z,6.00
2023-04-21T21:56:54.463Z,6.10
2023-04-21T21:59:22.352Z,6.60
2023-04-21T22:01:55.406Z,7.60
2023-04-21T22:04:23.308Z,6.80
2023-04-21T22:06:51.071Z,7.00
2023-04-21T22:09:19.567Z,8.40
2023-04-21T22:11:47.603Z,7.80
2023-04-21T22:14:22.549Z,7.10
2023-04-21T22:16:53.632Z,6.90
2023-04-21T22:19:23.059Z,7.20
2023-04-21T22:21:50.645Z,6.90
2023-04-21T22:24:18.908Z,7.40
2023-04-21T22:26:46.607Z,7.20
2023-04-21T22:29:14.077Z,6.90
2023-04-21T22:31:43.210Z,7.00
2023-04-21T22:34:10.821Z,7.30
2023-04-21T22:36:38.077Z,7.70
2023-04-21T22:39:06.836Z,7.60
2023-04-21T22:41:34.946Z,7.50
2023-04-21T22:44:02.199Z,6.90
2023-04-21T22:46:32.967Z,7.10
2023-04-21T22:49:02.831Z,6.40
2023-04-21T22:51:32.853Z,7.80
2023-04-21T22:54:01.309Z,7.20
2023-04-21T22:56:29.912Z,7.10
2023-04-21T22:58:57.904Z,7.80
2023-04-21T23:01:25.346Z,8.20
2023-04-21T23:03:52.774Z,8.00
2023-04-21T23:06:20.717Z,7.40
2023-04-21T23:08:48.456Z,7.70
2023-04-21T23:11:15.899Z,7.80
2023-04-21T23:13:43.572Z,7.80
2023-04-21T23:16:12.263Z,8.40
2023-04-21T23:18:39.520Z,8.10
2023-04-21T23:21:07.062Z,8.10
2023-04-21T23:23:34.605Z,8.20
2023-04-21T23:26:02.801Z,8.10
2023-04-21T23:28:30.535Z,8.10
2023-04-21T23:30:58.821Z,8.30
2023-04-21T23:33:26.086Z,7.80
2023-04-21T23:35:53.807Z,8.10
2023-04-21T23:38:21.327Z,8.10
2023-04-21T23:40:48.803Z,8.40
2023-04-21T23:43:16.230Z,8.60
2023-04-21T23:45:43.572Z,8.80
2023-04-21T23:48:10.913Z,9.20
2023-04-21T23:50:38.221Z,8.20
2023-04-21T23:53:05.824Z,8.90
2023-04-21T23:55:33.105Z,8.90
2023-04-21T23:58:01.105Z,8.60
